Time;durP1;ratioP1;P1;durP2;ratioP2;P2;SDS_P1;SDS_P2;PMS_P1;PMS_P2;Temp;Humidity;BMP_temperature;BMP_pressure;BME280_temperature;BME280_humidity;BME280_pressure;Samples;Min_cycle;Max_cycle;Signal;HPM_P1;HPM_P2
2022/02/09 00:01:26;;;;;;;3.38;2.20;;;;;;;;;;5065707;28;20052;-73
2022/02/09 00:04:03;;;;;;;8.88;2.13;;;;;;;;;;5056974;28;20041;-73
2022/02/09 00:06:45;;;;;;;3.95;2.35;;;;;;;;;;5066930;28;20450;-73
2022/02/09 00:09:11;;;;;;;7.10;2.40;;;;;;;;;;5041358;28;20035;-73
2022/02/09 00:14:22;;;;;;;5.32;2.30;;;;;;;;;;5070908;28;20033;-73
2022/02/09 00:19:23;;;;;;;5.75;2.63;;;;;;;;;;5070112;28;20035;-74
2022/02/09 00:22:22;;;;;;;6.30;2.63;;;;;;;;;;5072736;28;20028;-74
2022/02/09 00:35:46;;;;;;;5.80;3.90;;;;;;;;;;5073342;28;20100;-72
2022/02/09 00:38:47;;;;;;;7.32;4.30;;;;;;;;;;5074454;28;20533;-73
2022/02/09 00:41:26;;;;;;;11.90;4.70;;;;;;;;;;5074541;28;20044;-73
2022/02/09 01:56:21;;;;;;;10.45;5.13;;;;;;;;;;5072788;28;20035;-70
2022/02/09 01:58:47;;;;;;;10.43;4.75;;;;;;;;;;5072492;28;20411;-72
2022/02/09 02:01:12;;;;;;;11.05;4.72;;;;;;;;;;5071769;28;20107;-69
2022/02/09 02:03:38;;;;;;;7.80;4.63;;;;;;;;;;5074531;28;20035;-74
2022/02/09 02:06:03;;;;;;;9.00;5.22;;;;;;;;;;5073272;28;20021;-69
2022/02/09 02:08:29;;;;;;;11.15;6.22;;;;;;;;;;5073507;28;20066;-69
2022/02/09 02:11:59;;;;;;;11.65;6.70;;;;;;;;;;5071946;28;20019;-74
2022/02/09 02:16:39;;;;;;;17.35;7.28;;;;;;;;;;5074528;28;20097;-70
2022/02/09 02:19:13;;;;;;;12.45;6.28;;;;;;;;;;5054382;28;20369;-71
2022/02/09 02:22:09;;;;;;;11.95;7.57;;;;;;;;;;5062401;28;20362;-71
2022/02/09 02:27:22;;;;;;;19.40;7.47;;;;;;;;;;5074437;28;20047;-72
2022/02/09 02:38:32;;;;;;;11.77;6.75;;;;;;;;;;5057996;28;20476;-73
2022/02/09 02:46:56;;;;;;;16.15;7.63;;;;;;;;;;5070838;28;20154;-73
2022/02/09 03:13:40;;;;;;;10.45;5.78;;;;;;;;;;5072772;28;20138;-70
2022/02/09 03:16:13;;;;;;;18.85;7.05;;;;;;;;;;5096120;22;20086;-71
2022/02/09 03:21:32;;;;;;;16.85;6.28;;;;;;;;;;5073920;28;20035;-71
2022/02/09 03:24:05;;;;;;;10.20;6.05;;;;;;;;;;5090291;28;20069;-71
2022/02/09 03:27:03;;;;;;;13.50;5.90;;;;;;;;;;5070031;28;20028;-71
2022/02/09 03:43:39;;;;;;;11.70;5.97;;;;;;;;;;5067450;28;20098;-71
2022/02/09 03:49:02;;;;;;;;;;;;;;;;;;5070388;28;20115;-71
2022/02/09 03:56:43;;;;;;;10.27;5.72;;;;;;;;;;5070028;28;20556;-71
2022/02/09 03:59:08;;;;;;;10.93;5.60;;;;;;;;;;5071844;28;20032;-70
2022/02/09 04:01:37;;;;;;;9.27;5.30;;;;;;;;;;5073218;28;20035;-71
2022/02/09 04:04:02;;;;;;;10.90;5.63;;;;;;;;;;5074199;28;20032;-70
2022/02/09 04:06:33;;;;;;;11.98;5.03;;;;;;;;;;5073471;28;20024;-71
2022/02/09 04:09:00;;;;;;;8.20;4.57;;;;;;;;;;5074067;28;20059;-70
2022/02/09 04:11:31;;;;;;;9.85;5.57;;;;;;;;;;5072535;28;20388;-71
2022/02/09 04:14:09;;;;;;;9.82;5.05;;;;;;;;;;5056013;28;20028;-70
2022/02/09 04:43:49;;;;;;;3.55;1.60;;;;;;;;;;5072668;28;20028;-71
2022/02/09 04:46:48;;;;;;;3.17;1.80;;;;;;;;;;5073234;28;20029;-71
2022/02/09 04:52:00;;;;;;;4.50;2.65;;;;;;;;;;5072555;28;20020;-71
2022/02/09 04:54:42;;;;;;;5.13;2.30;;;;;;;;;;5072889;28;20077;-71
2022/02/09 04:57:15;;;;;;;6.40;2.50;;;;;;;;;;5073005;28;20027;-70
2022/02/09 05:00:09;;;;;;;4.63;2.42;;;;;;;;;;5072599;28;20429;-71
2022/02/09 05:03:23;;;;;;;6.35;3.10;;;;;;;;;;5072405;28;20044;-71
2022/02/09 05:20:10;;;;;;;7.60;3.67;;;;;;;;;;5071436;28;20094;-72
2022/02/09 05:27:50;;;;;;;;;;;;;;;;;;4990313;28;20061;-71
2022/02/09 05:30:16;;;;;;;6.68;3.10;;;;;;;;;;5061163;28;19955;-71
2022/02/09 05:32:41;;;;;;;7.53;3.10;;;;;;;;;;5071446;28;20036;-71
2022/02/09 05:35:07;;;;;;;10.18;3.45;;;;;;;;;;5071769;28;20022;-71
2022/02/09 05:37:32;;;;;;;6.80;4.13;;;;;;;;;;5059199;28;20022;-71
2022/02/09 05:39:57;;;;;;;7.57;4.10;;;;;;;;;;5071856;28;20527;-71
2022/02/09 05:42:22;;;;;;;8.73;3.57;;;;;;;;;;5071450;28;20044;-71
2022/02/09 05:44:47;;;;;;;7.13;3.65;;;;;;;;;;5071388;28;20258;-71
2022/02/09 05:49:47;;;;;;;10.77;4.70;;;;;;;;;;5071028;28;20270;-71
2022/02/09 05:52:22;;;;;;;5.28;3.38;;;;;;;;;;5069493;28;20123;-71
2022/02/09 05:55:23;;;;;;;6.78;3.03;;;;;;;;;;5069137;28;20039;-71
2022/02/09 05:57:54;;;;;;;5.70;3.42;;;;;;;;;;5071213;28;20039;-71
2022/02/09 06:00:19;;;;;;;5.93;3.42;;;;;;;;;;5070974;28;20485;-72
2022/02/09 06:02:46;;;;;;;7.13;3.58;;;;;;;;;;5070776;28;20035;-71
2022/02/09 06:05:12;;;;;;;7.50;3.75;;;;;;;;;;5052894;28;20029;-71
2022/02/09 06:07:37;;;;;;;14.32;3.90;;;;;;;;;;5070812;28;20028;-71
2022/02/09 06:10:02;;;;;;;11.00;4.47;;;;;;;;;;5054204;28;20036;-71
2022/02/09 06:12:40;;;;;;;10.75;4.10;;;;;;;;;;5046585;28;20008;-71
2022/02/09 06:15:47;;;;;;;11.93;3.40;;;;;;;;;;5068367;28;20025;-71
2022/02/09 06:20:46;;;;;;;8.85;3.70;;;;;;;;;;5069368;28;20101;-71
2022/02/09 06:23:12;;;;;;;6.97;3.60;;;;;;;;;;5068594;28;20056;-71
2022/02/09 06:25:37;;;;;;;9.60;5.57;;;;;;;;;;5069754;28;20016;-71
2022/02/09 06:28:02;;;;;;;9.30;4.60;;;;;;;;;;5055878;28;20348;-71
2022/02/09 06:30:27;;;;;;;13.95;6.60;;;;;;;;;;5069035;28;20025;-71
2022/02/09 06:32:53;;;;;;;9.20;4.55;;;;;;;;;;5067963;28;20028;-71
2022/02/09 06:35:19;;;;;;;9.32;3.85;;;;;;;;;;5065597;28;20020;-71
2022/02/09 06:37:46;;;;;;;11.35;4.88;;;;;;;;;;5069120;28;20017;-71
2022/02/09 06:40:15;;;;;;;10.57;5.15;;;;;;;;;;5068457;28;20392;-71
2022/02/09 06:42:40;;;;;;;14.57;3.90;;;;;;;;;;5067899;28;20436;-71
2022/02/09 06:45:29;;;;;;;11.00;4.53;;;;;;;;;;5067137;28;20035;-71
2022/02/09 06:47:51;;;;;;;7.95;4.03;;;;;;;;;;5067048;28;20047;-71
2022/02/09 06:50:25;;;;;;;9.00;4.50;;;;;;;;;;5067910;28;20028;-71
2022/02/09 06:53:02;;;;;;;10.30;4.05;;;;;;;;;;5067477;28;20024;-71
2022/02/09 06:55:27;;;;;;;12.00;4.18;;;;;;;;;;5045004;28;20691;-71
2022/02/09 06:58:00;;;;;;;9.55;3.85;;;;;;;;;;5068636;28;20021;-71
2022/02/09 07:00:26;;;;;;;8.70;4.88;;;;;;;;;;5059946;28;20032;-71
2022/02/09 07:02:52;;;;;;;8.30;4.28;;;;;;;;;;5067419;28;20067;-71
2022/02/09 07:05:17;;;;;;;13.23;4.70;;;;;;;;;;5069818;28;20358;-71
2022/02/09 07:07:42;;;;;;;10.15;4.00;;;;;;;;;;5070276;28;20024;-71
2022/02/09 07:10:08;;;;;;;8.50;4.30;;;;;;;;;;5070533;28;20468;-71
2022/02/09 07:12:34;;;;;;;7.75;4.28;;;;;;;;;;5069861;28;20016;-71
2022/02/09 07:14:59;;;;;;;9.90;2.95;;;;;;;;;;5069884;28;20107;-71
2022/02/09 07:17:24;;;;;;;13.73;4.30;;;;;;;;;;5069539;28;20074;-71
2022/02/09 07:19:55;;;;;;;9.27;3.67;;;;;;;;;;5069101;28;20080;-71
2022/02/09 07:22:25;;;;;;;7.50;3.72;;;;;;;;;;5068392;28;20032;-71
2022/02/09 07:25:01;;;;;;;8.52;3.97;;;;;;;;;;5069611;28;20543;-70
2022/02/09 07:27:39;;;;;;;9.07;3.55;;;;;;;;;;5069156;28;20036;-71
2022/02/09 07:30:04;;;;;;;9.63;4.63;;;;;;;;;;5070094;28;20035;-71
2022/02/09 07:32:30;;;;;;;7.55;3.45;;;;;;;;;;5070320;28;20021;-71
2022/02/09 07:34:55;;;;;;;8.80;3.93;;;;;;;;;;5070052;28;20021;-71
2022/02/09 07:37:20;;;;;;;6.60;2.97;;;;;;;;;;5070036;28;20325;-71
2022/02/09 07:39:45;;;;;;;9.82;2.28;;;;;;;;;;5069742;28;20251;-71
2022/02/09 07:42:13;;;;;;;13.23;4.88;;;;;;;;;;5069554;28;20060;-71
2022/02/09 07:52:38;;;;;;;7.45;3.55;;;;;;;;;;5067922;28;20013;-71
2022/02/09 07:55:04;;;;;;;10.13;4.47;;;;;;;;;;5068238;28;20031;-71
2022/02/09 07:57:29;;;;;;;8.38;4.10;;;;;;;;;;5068978;28;20029;-70
2022/02/09 07:59:55;;;;;;;10.53;3.23;;;;;;;;;;5069161;28;20020;-71
2022/02/09 08:02:21;;;;;;;9.90;4.40;;;;;;;;;;5068414;28;20764;-71
2022/02/09 08:04:46;;;;;;;8.43;2.92;;;;;;;;;;5068943;28;20266;-71
2022/02/09 08:07:12;;;;;;;5.93;3.00;;;;;;;;;;5069207;28;20370;-70
2022/02/09 08:09:40;;;;;;;7.40;3.70;;;;;;;;;;5069238;28;20349;-71
2022/02/09 08:28:44;;;;;;;11.57;4.90;;;;;;;;;;5069437;28;20421;-71
2022/02/09 08:33:42;;;;;;;10.82;4.88;;;;;;;;;;5067271;28;20489;-71
2022/02/09 08:36:07;;;;;;;12.77;4.75;;;;;;;;;;5068874;28;20056;-71
2022/02/09 08:38:33;;;;;;;8.52;3.33;;;;;;;;;;5069339;28;20128;-71
2022/02/09 08:40:58;;;;;;;11.18;4.20;;;;;;;;;;5071082;28;20052;-71
2022/02/09 08:43:24;;;;;;;10.63;2.63;;;;;;;;;;5072811;28;20032;-71
2022/02/09 08:45:49;;;;;;;6.88;2.90;;;;;;;;;;5072943;28;20028;-72
2022/02/09 08:48:15;;;;;;;8.52;3.80;;;;;;;;;;5072723;28;20031;-71
2022/02/09 08:50:40;;;;;;;6.10;2.42;;;;;;;;;;5072615;28;20021;-71
2022/02/09 08:53:05;;;;;;;5.10;2.78;;;;;;;;;;5071804;28;20027;-71
2022/02/09 08:55:31;;;;;;;14.60;4.70;;;;;;;;;;5064799;28;20023;-71
2022/02/09 08:57:56;;;;;;;6.47;2.92;;;;;;;;;;5072558;28;20104;-71
2022/02/09 09:02:52;;;;;;;5.72;2.40;;;;;;;;;;5072074;28;20443;-71
2022/02/09 09:05:24;;;;;;;;;;;;;;;;;;5072619;28;20020;-71
2022/02/09 09:07:56;;;;;;;4.75;2.40;;;;;;;;;;5072086;28;19954;-71
2022/02/09 09:10:32;;;;;;;6.80;2.95;;;;;;;;;;5072784;28;20031;-71
2022/02/09 09:17:04;;;;;;;4.30;1.73;;;;;;;;;;5101954;22;20046;-68
2022/02/09 09:18:58;;;;;;;6.82;3.83;;;;;;;;;;5100428;28;20046;-68
2022/02/09 10:02:54;;;;;;;11.52;3.15;;;;;;;;;;5091173;28;20024;-69
2022/02/09 10:05:47;;;;;;;6.85;3.10;;;;;;;;;;5091247;28;20073;-69
2022/02/09 10:31:07;;;;;;;12.48;5.60;;;;;;;;;;5086540;28;20729;-68
2022/02/09 10:33:34;;;;;;;11.30;5.55;;;;;;;;;;5090483;28;20027;-68
2022/02/09 10:36:13;;;;;;;13.90;6.05;;;;;;;;;;5090535;28;20031;-68
2022/02/09 10:38:41;;;;;;;10.70;5.32;;;;;;;;;;5090281;28;20020;-68
2022/02/09 10:41:13;;;;;;;14.60;5.95;;;;;;;;;;5090659;28;20160;-68
2022/02/09 10:43:41;;;;;;;8.90;4.53;;;;;;;;;;5090444;28;20020;-69
2022/02/09 10:46:12;;;;;;;13.35;5.28;;;;;;;;;;5090927;28;20110;-68
2022/02/09 10:48:46;;;;;;;13.48;5.38;;;;;;;;;;5071565;28;20384;-68
2022/02/09 10:51:22;;;;;;;13.02;5.68;;;;;;;;;;5063360;28;20392;-68
2022/02/09 10:54:06;;;;;;;8.68;4.15;;;;;;;;;;5089591;28;20016;-69
2022/02/09 10:56:33;;;;;;;13.00;6.03;;;;;;;;;;5085216;28;20380;-69
2022/02/09 10:59:00;;;;;;;11.23;4.65;;;;;;;;;;5090615;28;20456;-69
2022/02/09 11:01:25;;;;;;;12.00;4.68;;;;;;;;;;5089725;28;20062;-69
2022/02/09 11:03:52;;;;;;;12.85;5.80;;;;;;;;;;5090425;28;20535;-69
2022/02/09 11:06:18;;;;;;;15.85;5.18;;;;;;;;;;5090010;28;20016;-69
2022/02/09 11:08:43;;;;;;;7.97;3.25;;;;;;;;;;5089793;28;20123;-69
2022/02/09 11:11:09;;;;;;;7.35;3.47;;;;;;;;;;5090532;28;20090;-69
2022/02/09 11:13:34;;;;;;;10.68;4.32;;;;;;;;;;5089821;28;20020;-69
2022/02/09 11:16:00;;;;;;;14.23;4.57;;;;;;;;;;5088002;28;20125;-69
2022/02/09 11:18:25;;;;;;;17.60;4.45;;;;;;;;;;5089550;28;20028;-69
2022/02/09 11:21:05;;;;;;;9.48;4.25;;;;;;;;;;5089306;28;20047;-69
2022/02/09 11:23:52;;;;;;;8.48;3.22;;;;;;;;;;5087545;28;20392;-69
2022/02/09 11:26:26;;;;;;;11.65;3.53;;;;;;;;;;5068302;28;20554;-67
2022/02/09 11:29:16;;;;;;;8.77;3.55;;;;;;;;;;5088462;28;20094;-68
2022/02/09 11:32:00;;;;;;;10.70;4.15;;;;;;;;;;5085803;28;20032;-68
2022/02/09 11:34:25;;;;;;;16.80;3.50;;;;;;;;;;5083626;28;20016;-68
2022/02/09 11:37:00;;;;;;;13.38;2.70;;;;;;;;;;5085710;28;20101;-67
2022/02/09 11:39:41;;;;;;;19.90;4.55;;;;;;;;;;5081589;28;20479;-68
2022/02/09 11:42:28;;;;;;;8.65;3.65;;;;;;;;;;5085106;28;20027;-68
2022/02/09 11:45:14;;;;;;;10.63;3.05;;;;;;;;;;5070795;28;20047;-68
2022/02/09 11:59:09;;;;;;;;;;;;;;;;;;5090146;28;20055;-68
2022/02/09 12:01:39;;;;;;;18.85;3.22;;;;;;;;;;5088766;28;19923;-68
2022/02/09 12:09:41;;;;;;;11.93;3.65;;;;;;;;;;5089763;28;20027;-68
2022/02/09 12:12:15;;;;;;;9.98;2.85;;;;;;;;;;5085776;28;20044;-68
2022/02/09 12:14:53;;;;;;;8.48;2.03;;;;;;;;;;5089220;28;20065;-68
2022/02/09 12:20:02;;;;;;;15.85;2.90;;;;;;;;;;5093811;28;20024;-68
2022/02/09 12:22:37;;;;;;;8.77;2.58;;;;;;;;;;5093643;28;20093;-68
2022/02/09 12:25:02;;;;;;;16.10;3.83;;;;;;;;;;5093144;28;20119;-69
2022/02/09 12:27:28;;;;;;;12.27;3.83;;;;;;;;;;5093208;28;20103;-68
2022/02/09 12:30:02;;;;;;;18.10;5.15;;;;;;;;;;5093785;28;20028;-68
2022/02/09 12:32:29;;;;;;;18.38;5.47;;;;;;;;;;5093066;28;20366;-68
2022/02/09 12:34:57;;;;;;;11.05;4.88;;;;;;;;;;5092666;28;20084;-68
2022/02/09 12:37:23;;;;;;;9.00;2.80;;;;;;;;;;5092637;28;20024;-68
2022/02/09 12:39:49;;;;;;;15.68;4.30;;;;;;;;;;5073939;28;20027;-68
2022/02/09 12:42:14;;;;;;;15.95;4.50;;;;;;;;;;5092827;28;20024;-68
2022/02/09 12:44:40;;;;;;;12.77;4.10;;;;;;;;;;5093411;28;20502;-68
2022/02/09 12:47:05;;;;;;;12.40;4.50;;;;;;;;;;5093432;28;20045;-68
2022/02/09 12:49:32;;;;;;;14.95;4.72;;;;;;;;;;5092664;28;20066;-68
2022/02/09 12:51:57;;;;;;;16.95;3.72;;;;;;;;;;5092520;28;20405;-68
2022/02/09 12:54:23;;;;;;;7.93;3.33;;;;;;;;;;5074032;28;20028;-68
2022/02/09 12:56:49;;;;;;;11.18;3.97;;;;;;;;;;5066367;28;20435;-68
2022/02/09 12:59:16;;;;;;;13.70;4.05;;;;;;;;;;5092351;28;20027;-68
2022/02/09 13:01:44;;;;;;;12.88;3.90;;;;;;;;;;5094332;28;20464;-67
2022/02/09 13:04:10;;;;;;;14.57;4.65;;;;;;;;;;5090307;28;20054;-67
2022/02/09 13:06:36;;;;;;;10.95;3.85;;;;;;;;;;5069960;28;20075;-67
2022/02/09 13:09:01;;;;;;;12.90;3.80;;;;;;;;;;5092622;28;20032;-67
2022/02/09 13:11:29;;;;;;;12.50;3.95;;;;;;;;;;5092853;28;20024;-67
2022/02/09 13:14:08;;;;;;;17.58;4.03;;;;;;;;;;5092035;28;20024;-67
2022/02/09 14:31:30;;;;;;;12.88;3.47;;;;;;;;;;5093765;28;20102;-69
2022/02/09 14:58:10;;;;;;;8.43;2.45;;;;;;;;;;5073283;28;20369;-69
2022/02/09 15:00:52;;;;;;;11.48;2.60;;;;;;;;;;5080517;28;20051;-68
2022/02/09 15:08:37;;;;;;;14.63;2.58;;;;;;;;;;5092274;28;20115;-69
2022/02/09 15:13:51;;;;;;;7.65;2.60;;;;;;;;;;5092674;28;20365;-69
2022/02/09 15:16:35;;;;;;;10.02;2.28;;;;;;;;;;5106968;22;20047;-71
2022/02/09 15:24:13;;;;;;;6.78;2.40;;;;;;;;;;5111563;28;20046;-71
2022/02/09 15:26:38;;;;;;;7.43;2.00;;;;;;;;;;5093052;28;20020;-71
2022/02/09 15:29:03;;;;;;;14.95;3.50;;;;;;;;;;5088101;28;20568;-71
2022/02/09 15:31:37;;;;;;;10.30;2.00;;;;;;;;;;5085437;28;20070;-71
2022/02/09 15:34:14;;;;;;;7.55;1.70;;;;;;;;;;5067029;28;20020;-71
2022/02/09 15:36:58;;;;;;;8.32;2.20;;;;;;;;;;5088755;28;20093;-73
2022/02/09 15:39:25;;;;;;;14.18;4.50;;;;;;;;;;5089279;28;20035;-72
2022/02/09 15:42:08;;;;;;;13.52;2.25;;;;;;;;;;5087498;28;20016;-73
2022/02/09 16:07:04;;;;;;;11.93;2.95;;;;;;;;;;5092746;28;20032;-73
2022/02/09 16:20:03;;;;;;;14.63;2.80;;;;;;;;;;5093235;28;20073;-73
2022/02/09 16:22:50;;;;;;;6.55;2.42;;;;;;;;;;5093491;28;20024;-73
2022/02/09 16:25:23;;;;;;;7.85;2.38;;;;;;;;;;5093833;28;20766;-72
2022/02/09 16:33:28;;;;;;;13.38;3.03;;;;;;;;;;5089539;28;20034;-73
2022/02/09 16:44:37;;;;;;;6.88;3.15;;;;;;;;;;5091561;28;20111;-74
2022/02/09 16:47:04;;;;;;;10.95;3.03;;;;;;;;;;5066364;28;20024;-73
2022/02/09 16:49:55;;;;;;;11.93;3.78;;;;;;;;;;5092935;28;20043;-73
2022/02/09 16:52:30;;;;;;;17.92;3.70;;;;;;;;;;5092096;28;20066;-72
2022/02/09 17:11:12;;;;;;;11.88;3.90;;;;;;;;;;5091107;28;20391;-71
2022/02/09 17:19:26;;;;;;;12.13;3.70;;;;;;;;;;5091402;28;20031;-72
2022/02/09 17:21:51;;;;;;;9.23;3.15;;;;;;;;;;5090995;28;20570;-72
2022/02/09 17:24:16;;;;;;;14.93;4.07;;;;;;;;;;5071457;28;20027;-72
2022/02/09 17:26:42;;;;;;;11.33;3.90;;;;;;;;;;5094053;28;20277;-73
2022/02/09 17:29:07;;;;;;;10.57;4.00;;;;;;;;;;5095921;28;20769;-73
2022/02/09 17:31:59;;;;;;;18.38;3.80;;;;;;;;;;5093078;28;20107;-73
2022/02/09 17:37:13;;;;;;;15.82;5.05;;;;;;;;;;5086885;28;20108;-74
2022/02/09 17:58:21;;;;;;;18.65;8.75;;;;;;;;;;5091166;28;20591;-73
2022/02/09 18:00:48;;;;;;;25.53;8.90;;;;;;;;;;5073342;28;20016;-74
2022/02/09 18:03:15;;;;;;;18.20;8.52;;;;;;;;;;5086520;28;20262;-73
2022/02/09 18:05:47;;;;;;;18.60;7.88;;;;;;;;;;5067682;28;21743;-74
2022/02/09 18:10:52;;;;;;;24.40;7.47;;;;;;;;;;5083931;28;20036;-72
2022/02/09 18:29:56;;;;;;;28.40;9.70;;;;;;;;;;5081608;28;20027;-73
2022/02/09 19:03:33;;;;;;;17.08;6.40;;;;;;;;;;5084742;28;20024;-74
2022/02/09 19:06:02;;;;;;;17.90;7.03;;;;;;;;;;5087583;28;20108;-74
2022/02/09 19:14:14;;;;;;;17.75;6.28;;;;;;;;;;5082636;28;20431;-73
2022/02/09 19:17:00;;;;;;;18.15;5.55;;;;;;;;;;5077587;28;20028;-74
2022/02/09 19:19:56;;;;;;;12.90;5.40;;;;;;;;;;5066870;28;20024;-74
2022/02/09 19:28:58;;;;;;;11.48;4.53;;;;;;;;;;5048434;28;20021;-73
2022/02/09 19:31:09;;;;;;;19.80;5.25;;;;;;;;;;5085547;28;20434;-72
2022/02/09 19:45:12;;;;;;;19.00;8.25;;;;;;;;;;5079428;28;20035;-74
2022/02/09 19:47:41;;;;;;;16.85;7.43;;;;;;;;;;5086790;28;20043;-71
2022/02/09 19:50:23;;;;;;;21.90;8.07;;;;;;;;;;5082732;28;20541;-72
2022/02/09 19:52:57;;;;;;;19.88;8.68;;;;;;;;;;5088352;28;20020;-73
2022/02/09 19:55:32;;;;;;;26.33;6.95;;;;;;;;;;5087428;28;20463;-73
2022/02/09 19:57:59;;;;;;;17.20;7.93;;;;;;;;;;5080385;28;20379;-74
2022/02/09 20:00:27;;;;;;;17.33;6.80;;;;;;;;;;5086606;28;20024;-74
2022/02/09 20:02:52;;;;;;;16.25;7.00;;;;;;;;;;5068945;28;20020;-73
2022/02/09 20:05:19;;;;;;;24.70;8.27;;;;;;;;;;5087696;28;20028;-73
2022/02/09 20:07:45;;;;;;;15.23;7.57;;;;;;;;;;5087708;28;20418;-75
2022/02/09 20:10:12;;;;;;;18.88;7.78;;;;;;;;;;5087624;28;20024;-73
2022/02/09 20:12:37;;;;;;;17.88;8.20;;;;;;;;;;5086427;28;20027;-73
2022/02/09 20:15:03;;;;;;;18.83;7.15;;;;;;;;;;5087413;28;20016;-72
2022/02/09 20:17:28;;;;;;;19.05;7.72;;;;;;;;;;5085035;28;20016;-72
2022/02/09 20:19:56;;;;;;;20.50;7.57;;;;;;;;;;5086925;28;20467;-72
2022/02/09 20:22:21;;;;;;;21.77;8.05;;;;;;;;;;5086973;28;20672;-73
2022/02/09 20:24:47;;;;;;;24.58;7.63;;;;;;;;;;5075420;28;20158;-72
2022/02/09 20:27:17;;;;;;;13.15;7.72;;;;;;;;;;5087732;28;20746;-72
2022/02/09 20:29:42;;;;;;;22.65;9.32;;;;;;;;;;5087071;28;20016;-74
2022/02/09 20:34:46;;;;;;;21.88;10.95;;;;;;;;;;5087926;28;20019;-74
2022/02/09 20:37:11;;;;;;;28.73;13.13;;;;;;;;;;5093070;28;20472;-74
2022/02/09 20:39:53;;;;;;;34.03;13.90;;;;;;;;;;5093534;28;20024;-72
2022/02/09 20:42:18;;;;;;;32.28;13.48;;;;;;;;;;5073348;28;20255;-71
2022/02/09 20:44:52;;;;;;;30.98;13.32;;;;;;;;;;5082385;28;20031;-71
2022/02/09 20:47:17;;;;;;;20.80;10.23;;;;;;;;;;5075432;28;20021;-71
2022/02/09 20:49:43;;;;;;;29.00;11.40;;;;;;;;;;5080995;28;20085;-71
2022/02/09 20:52:09;;;;;;;20.87;10.60;;;;;;;;;;5085872;28;20407;-71
2022/02/09 20:54:34;;;;;;;25.70;10.27;;;;;;;;;;5086606;28;20903;-73
2022/02/09 20:56:59;;;;;;;26.07;8.73;;;;;;;;;;5091782;28;20041;-72
2022/02/09 20:59:26;;;;;;;28.73;10.17;;;;;;;;;;5089755;28;20357;-72
2022/02/09 21:02:00;;;;;;;21.63;9.52;;;;;;;;;;5086779;28;20258;-71
2022/02/09 21:04:27;;;;;;;23.20;9.57;;;;;;;;;;5088171;28;20055;-72
2022/02/09 21:07:03;;;;;;;21.02;9.93;;;;;;;;;;5089678;28;20053;-72
2022/02/09 21:09:45;;;;;;;21.83;10.32;;;;;;;;;;5081037;28;20103;-72
2022/02/09 21:12:41;;;;;;;26.17;11.23;;;;;;;;;;5074531;28;20027;-72
2022/02/09 21:55:08;;;;;;;24.13;8.90;;;;;;;;;;5091596;28;20068;-70
2022/02/09 21:57:42;;;;;;;19.13;9.50;;;;;;;;;;5091351;28;20020;-69
2022/02/09 22:19:33;;;;;;;22.73;9.30;;;;;;;;;;5089935;28;20536;-70
2022/02/09 22:25:47;;;;;;;29.35;9.88;;;;;;;;;;5089504;28;20152;-70
2022/02/09 22:27:31;;;;;;;22.90;8.40;;;;;;;;;;5089737;28;20043;-69
2022/02/09 22:49:31;;;;;;;21.58;8.55;;;;;;;;;;5090538;28;20031;-69
2022/02/09 22:54:44;;;;;;;15.40;7.97;;;;;;;;;;5084723;28;20023;-69
2022/02/09 22:57:10;;;;;;;21.13;7.80;;;;;;;;;;5089542;28;20012;-69
2022/02/09 23:00:01;;;;;;;21.50;8.82;;;;;;;;;;5089337;28;20023;-69
2022/02/09 23:02:32;;;;;;;24.02;7.68;;;;;;;;;;5082975;28;20035;-69
2022/02/09 23:10:17;;;;;;;21.90;8.48;;;;;;;;;;5082787;28;20342;-69
2022/02/09 23:12:50;;;;;;;14.68;6.32;;;;;;;;;;5088118;28;20069;-69
